Skip Navigation Links Skip Navigation Links

Current Weather

Morris Muni - James R. Washburn Field, Morris, Ill.

For information only: do not use for flight planning or navigation.
Latest weather
Observation time Tuesday, September 28, 2021 5:35 AM CDT
Local time Tuesday, September 28, 2021 6:05 AM CDT
Flight conditions Visual Meteorological Conditions
Winds
Wind speed calm
Visibility 10 mi.
Sky condition
Ceiling unlimited
Sky clear
Temperature 55°F
Dewpoint 55°F
Altimeter 29.94 in.Hg
Derived measurements
Relative humidity 100%
Density altitude 533 ft.
Remarks
Fully automated report.
Automated weather observing station with precipitation discriminator.
METAR KC09 281035Z AUTO 00000KT 10SM CLR 13/13 A2994 RMK AO2 T01300130

Settings

Location code

InnerDrive.Weather 4.0.6770.0 Release CLR 4.0.30319.42000
Copyright ©2018 Inner Drive Technology. All rights reserved. Portions Copyright ©1986-2018 David Braverman.

Find weather

Site navigation


Skip Navigation Links

Place info

Page info

PayPal - The safer, easier way to pay online!

Return home.

Copyright ©2021 Inner Drive Technology. Purveyors of fine, hand-crafted computer software. Page printed 2021-09-28T11:05:53 UTC.